Time;durP1;ratioP1;P1;durP2;ratioP2;P2;SDS_P1;SDS_P2;PMS_P1;PMS_P2;Temp;Humidity;BMP_temperature;BMP_pressure;BME280_temperature;BME280_humidity;BME280_pressure;Samples;Min_cycle;Max_cycle;Signal;HPM_P1;HPM_P2
2023/05/13 00:01:44;;;;;;;11.27;6.03;;;12.50;99.90;;;11.82;100.00;101704.47;4135453;28;20552;-73
2023/05/13 00:03:46;;;;;;;8.95;6.28;;;12.50;99.90;;;11.81;100.00;101702.78;4120930;28;20034;-73
2023/05/13 00:05:46;;;;;;;8.25;5.75;;;12.50;99.90;;;11.76;100.00;101696.25;4120886;28;20054;-73
2023/05/13 00:07:47;;;;;;;7.13;5.25;;;12.50;99.90;;;11.79;100.00;101699.47;4135588;28;20026;-73
2023/05/13 00:09:48;;;;;;;8.98;6.20;;;12.50;99.90;;;11.80;100.00;101698.47;4119376;28;20074;-73
2023/05/13 00:11:49;;;;;;;9.52;5.82;;;12.50;99.90;;;11.78;100.00;101695.13;4120766;28;20034;-73
2023/05/13 00:13:50;;;;;;;6.90;5.82;;;12.50;99.90;;;11.80;100.00;101701.09;4135870;28;20030;-73
2023/05/13 00:15:51;;;;;;;6.05;4.72;;;12.50;99.90;;;11.84;100.00;101699.88;4135562;28;20026;-72
2023/05/13 00:17:52;;;;;;;7.47;5.57;;;12.50;99.90;;;11.84;100.00;101688.44;4119038;28;20514;-72
2023/05/13 00:19:53;;;;;;;8.63;5.95;;;12.50;99.90;;;11.77;100.00;101690.81;4135826;28;20022;-72
2023/05/13 00:21:54;;;;;;;8.35;5.13;;;12.50;99.90;;;11.82;100.00;101696.53;4119374;28;20022;-72
2023/05/13 00:23:55;;;;;;;7.43;5.65;;;12.50;99.90;;;11.80;100.00;101697.66;4135466;28;20030;-73
2023/05/13 00:25:55;;;;;;;8.23;5.70;;;12.50;99.90;;;11.78;100.00;101686.38;4119520;28;20035;-73
2023/05/13 00:27:56;;;;;;;10.20;5.97;;;12.50;99.90;;;11.85;100.00;101692.78;4120554;28;20510;-73
2023/05/13 00:29:58;;;;;;;8.32;6.43;;;12.50;99.90;;;11.82;100.00;101695.69;4120513;28;20038;-72
2023/05/13 00:31:59;;;;;;;8.23;6.30;;;12.50;99.90;;;11.84;100.00;101696.38;4135283;28;20049;-72
2023/05/13 00:34:00;;;;;;;11.73;6.90;;;12.50;99.90;;;11.84;100.00;101699.03;4120340;28;20035;-73
2023/05/13 00:36:01;;;;;;;7.75;5.82;;;12.50;99.90;;;11.83;100.00;101695.53;4120235;28;20026;-73
2023/05/13 00:38:02;;;;;;;10.10;6.60;;;12.50;99.90;;;11.82;100.00;101685.97;4135563;28;20026;-72
2023/05/13 00:40:03;;;;;;;9.38;6.85;;;12.50;99.90;;;11.81;100.00;101692.22;4119124;28;20398;-72
2023/05/13 00:42:04;;;;;;;7.32;5.68;;;12.50;99.90;;;11.85;100.00;101696.25;4119106;28;20027;-72
2023/05/13 00:44:05;;;;;;;8.80;5.18;;;12.50;99.90;;;11.85;100.00;101695.41;4119927;28;20110;-73
2023/05/13 00:46:06;;;;;;;8.40;6.00;;;12.50;99.90;;;11.87;100.00;101696.09;4135319;28;20034;-72
2023/05/13 00:48:08;;;;;;;7.93;5.18;;;12.50;99.90;;;11.89;100.00;101688.84;4118909;28;20038;-72
2023/05/13 00:50:10;;;;;;;11.90;6.82;;;12.50;99.90;;;11.84;100.00;101681.34;4135261;28;20030;-73
2023/05/13 00:52:11;;;;;;;10.23;6.90;;;12.50;99.90;;;11.81;100.00;101673.72;4134973;28;20073;-72
2023/05/13 00:54:12;;;;;;;9.25;6.68;;;12.50;99.90;;;11.80;100.00;101682.59;4135175;28;20402;-72
2023/05/13 00:56:18;;;;;;;8.35;6.22;;;12.50;99.90;;;11.82;100.00;101679.84;4119482;28;20031;-72
2023/05/13 00:58:19;;;;;;;12.00;6.60;;;12.50;99.90;;;11.70;100.00;101671.22;4134975;28;20030;-72
2023/05/13 01:00:20;;;;;;;8.13;6.10;;;12.50;99.90;;;11.79;100.00;101686.25;4135047;28;20026;-72
2023/05/13 01:02:35;;;;;;;7.78;6.05;;;12.50;99.90;;;11.84;100.00;101681.34;4118800;28;20031;-72
2023/05/13 01:04:53;;;;;;;9.40;6.78;;;12.50;99.90;;;11.80;100.00;101679.97;4120121;28;20046;-73
2023/05/13 01:07:21;;;;;;;10.98;6.63;;;12.50;99.90;;;11.79;100.00;101683.59;4104412;28;20050;-72
2023/05/13 01:09:39;;;;;;;9.93;6.57;;;12.50;99.90;;;11.80;100.00;101674.66;4128096;28;20031;-73
2023/05/13 01:11:41;;;;;;;9.20;6.28;;;12.50;99.90;;;11.83;100.00;101676.19;4133871;28;20817;-73
2023/05/13 01:13:47;;;;;;;10.27;6.05;;;12.50;99.90;;;11.83;100.00;101677.03;4134888;28;20033;-72
2023/05/13 01:16:14;;;;;;;8.45;6.93;;;12.50;99.90;;;11.87;100.00;101677.59;4134758;28;20482;-73
2023/05/13 01:18:24;;;;;;;9.40;6.25;;;12.50;99.90;;;11.82;100.00;101669.25;4133205;28;20058;-73
2023/05/13 01:20:27;;;;;;;9.73;6.72;;;12.50;99.90;;;11.85;100.00;101680.38;4118703;28;20030;-73
2023/05/13 01:22:28;;;;;;;9.73;7.22;;;12.50;99.90;;;11.79;100.00;101670.38;4119878;28;20034;-73
2023/05/13 01:24:28;;;;;;;9.40;6.68;;;12.50;99.90;;;11.80;100.00;101668.56;4125607;28;20053;-72
2023/05/13 01:26:29;;;;;;;8.95;6.72;;;12.50;99.90;;;11.79;100.00;101669.53;4119950;28;20038;-73
2023/05/13 01:28:30;;;;;;;10.15;7.00;;;12.50;99.90;;;11.80;100.00;101672.03;4119938;28;20518;-72
2023/05/13 01:30:31;;;;;;;8.80;6.20;;;12.50;99.90;;;11.82;100.00;101683.31;4119834;28;20506;-72
2023/05/13 01:32:34;;;;;;;9.50;5.93;;;12.50;99.90;;;11.84;100.00;101670.78;4119507;28;20037;-73
2023/05/13 01:34:37;;;;;;;10.27;6.50;;;12.50;99.90;;;11.85;100.00;101679.56;4134704;28;20445;-73
2023/05/13 01:36:38;;;;;;;10.13;6.45;;;12.50;99.90;;;11.83;100.00;101666.47;4134693;28;20038;-72
2023/05/13 01:38:40;;;;;;;12.82;6.95;;;12.50;99.90;;;11.85;100.00;101674.28;4134562;28;20025;-72
2023/05/13 01:40:42;;;;;;;9.05;6.53;;;12.50;99.90;;;11.83;100.00;101671.75;4119656;28;20019;-72
2023/05/13 01:42:43;;;;;;;9.80;6.97;;;12.50;99.90;;;11.83;100.00;101677.03;4134614;28;20026;-72
2023/05/13 01:44:44;;;;;;;9.63;7.43;;;12.50;99.90;;;11.82;100.00;101672.75;4118585;28;20047;-72
2023/05/13 01:46:46;;;;;;;14.80;7.70;;;12.50;99.90;;;11.80;100.00;101666.75;4118470;28;20502;-72
2023/05/13 01:48:47;;;;;;;8.95;7.13;;;12.50;99.90;;;11.79;100.00;101678.31;4134561;28;20026;-72
2023/05/13 01:50:48;;;;;;;9.82;7.28;;;12.50;99.90;;;11.76;100.00;101673.31;4134561;28;20053;-72
2023/05/13 01:52:49;;;;;;;10.30;7.28;;;12.40;99.90;;;11.74;100.00;101669.94;4102033;29;20038;-72
2023/05/13 01:54:50;;;;;;;10.38;7.47;;;12.40;99.90;;;11.75;100.00;101678.72;4119822;28;20023;-72
2023/05/13 01:56:51;;;;;;;10.50;6.78;;;12.40;99.90;;;11.78;100.00;101674.00;4118616;28;20026;-72
2023/05/13 01:58:52;;;;;;;10.63;7.15;;;12.40;99.90;;;11.77;100.00;101674.94;4118489;28;20023;-72
2023/05/13 02:00:53;;;;;;;12.25;7.63;;;12.40;99.90;;;11.75;100.00;101673.44;4119537;28;20031;-72
2023/05/13 02:02:54;;;;;;;12.05;8.00;;;12.40;99.90;;;11.72;100.00;101661.34;4119407;28;20399;-72
2023/05/13 02:04:55;;;;;;;13.60;8.07;;;12.40;99.90;;;11.72;100.00;101666.63;4134601;28;20074;-72
2023/05/13 02:06:56;;;;;;;9.55;6.68;;;12.40;99.90;;;11.72;100.00;101663.13;4119846;28;20097;-72
2023/05/13 02:08:57;;;;;;;10.52;7.93;;;12.40;99.90;;;11.73;100.00;101670.09;4137178;28;20118;-72
2023/05/13 02:10:59;;;;;;;12.40;8.18;;;12.40;99.90;;;11.69;100.00;101658.94;4122238;28;20077;-72
2023/05/13 02:13:00;;;;;;;14.02;8.35;;;12.40;99.90;;;11.66;100.00;101667.16;4120928;28;20033;-72
2023/05/13 02:15:01;;;;;;;14.30;9.40;;;12.40;99.90;;;11.57;100.00;101654.78;4122623;28;20022;-72
2023/05/13 02:17:02;;;;;;;13.77;9.00;;;12.40;99.90;;;11.60;100.00;101659.78;4105084;29;20062;-72
2023/05/13 02:19:03;;;;;;;12.73;8.32;;;12.40;99.90;;;11.61;100.00;101672.03;4122413;28;20491;-73
2023/05/13 02:21:04;;;;;;;15.63;8.20;;;12.30;99.90;;;11.61;100.00;101672.03;4121217;28;20027;-72
2023/05/13 02:23:05;;;;;;;11.00;8.10;;;12.30;99.90;;;11.56;100.00;101653.09;4122513;28;20047;-72
2023/05/13 02:25:07;;;;;;;11.60;8.00;;;12.30;99.90;;;11.65;100.00;101671.59;4122389;28;20054;-73
2023/05/13 02:27:11;;;;;;;14.32;9.25;;;12.30;99.90;;;11.68;100.00;101672.31;4122388;28;20402;-73
2023/05/13 02:29:12;;;;;;;12.20;8.80;;;12.40;99.90;;;11.66;100.00;101667.16;4122008;28;20062;-72
2023/05/13 02:31:14;;;;;;;13.18;8.82;;;12.40;99.90;;;11.70;100.00;101670.38;4122499;28;20038;-72
2023/05/13 02:33:14;;;;;;;12.98;8.25;;;12.40;99.90;;;11.71;100.00;101672.88;4136961;28;20027;-72
2023/05/13 02:35:15;;;;;;;12.85;8.02;;;12.40;99.90;;;11.69;100.00;101666.88;4122224;28;20038;-72
2023/05/13 02:37:16;;;;;;;11.98;7.97;;;12.40;99.90;;;11.74;100.00;101672.59;4137050;28;20048;-72
2023/05/13 02:39:17;;;;;;;12.48;7.97;;;12.40;99.90;;;11.70;100.00;101665.09;4122152;28;20034;-73
2023/05/13 02:41:18;;;;;;;17.35;8.38;;;12.40;99.90;;;11.71;100.00;101661.50;4121043;28;20096;-72
2023/05/13 02:43:19;;;;;;;13.10;8.80;;;12.40;99.90;;;11.76;100.00;101675.09;4136991;28;20038;-72
2023/05/13 02:45:20;;;;;;;10.65;7.93;;;12.40;99.90;;;11.77;100.00;101674.94;4120472;28;20054;-72
2023/05/13 02:47:21;;;;;;;14.73;9.32;;;12.40;99.90;;;11.77;100.00;101671.50;4121856;28;20037;-72
2023/05/13 02:49:22;;;;;;;13.20;9.13;;;12.40;99.90;;;11.79;100.00;101669.53;4122034;28;20463;-72
2023/05/13 02:51:23;;;;;;;13.82;8.55;;;12.50;99.90;;;11.79;100.00;101674.81;4121995;28;20030;-72
2023/05/13 02:53:24;;;;;;;12.60;8.63;;;12.40;99.90;;;11.78;100.00;101679.28;4121912;28;20034;-72
2023/05/13 02:55:24;;;;;;;14.65;9.50;;;12.50;99.90;;;11.76;100.00;101673.31;4136632;28;20045;-72
2023/05/13 02:57:25;;;;;;;11.93;8.93;;;12.50;99.90;;;11.77;100.00;101682.06;4121945;28;20462;-72
2023/05/13 02:59:26;;;;;;;14.93;9.93;;;12.40;99.90;;;11.77;100.00;101671.50;4136762;28;20035;-72
2023/05/13 03:01:27;;;;;;;15.20;9.98;;;12.40;99.90;;;11.75;100.00;101673.44;4121739;28;20426;-72
2023/05/13 03:03:28;;;;;;;12.00;8.95;;;12.40;99.90;;;11.70;100.00;101671.22;4121687;28;20031;-72
2023/05/13 03:05:29;;;;;;;13.23;8.70;;;12.40;99.90;;;11.71;100.00;101672.06;4121914;28;20022;-72
2023/05/13 03:07:30;;;;;;;12.63;8.88;;;12.40;99.90;;;11.74;100.00;101669.16;4121812;28;20023;-72
2023/05/13 03:09:30;;;;;;;16.60;9.48;;;12.40;99.90;;;11.74;100.00;101672.59;4120576;28;20023;-72
2023/05/13 03:11:31;;;;;;;13.90;9.15;;;12.40;99.90;;;11.71;100.00;101661.50;4121838;28;20043;-73
2023/05/13 03:13:32;;;;;;;15.02;9.45;;;12.40;99.90;;;11.72;100.00;101674.56;4136613;28;20030;-73
2023/05/13 03:15:33;;;;;;;15.93;10.00;;;12.40;99.90;;;11.68;100.00;101670.47;4121670;28;20038;-72
2023/05/13 03:17:34;;;;;;;14.63;9.65;;;12.40;99.90;;;11.70;100.00;101670.38;4120270;28;20062;-72
2023/05/13 03:19:38;;;;;;;14.57;10.52;;;12.40;99.90;;;11.66;100.00;101672.44;4135532;28;20098;-73
2023/05/13 03:21:39;;;;;;;17.45;10.23;;;12.40;99.90;;;11.68;100.00;101678.41;4136565;28;20030;-72
2023/05/13 03:23:40;;;;;;;18.33;10.65;;;12.40;99.90;;;11.72;100.00;101682.47;4120282;28;20062;-72
2023/05/13 03:25:41;;;;;;;17.35;10.55;;;12.40;99.90;;;11.72;100.00;101679.00;4121421;28;20027;-72
2023/05/13 03:27:42;;;;;;;22.50;11.23;;;12.40;99.90;;;11.74;100.00;101680.53;4120206;28;20031;-72
2023/05/13 03:29:42;;;;;;;20.77;11.98;;;12.40;99.90;;;11.70;100.00;101665.94;4108869;28;20057;-72
2023/05/13 03:31:44;;;;;;;16.60;10.45;;;12.40;99.90;;;11.77;100.00;101685.53;4113312;28;20039;-72
2023/05/13 03:33:45;;;;;;;18.20;9.73;;;12.40;99.90;;;11.79;100.00;101683.59;4120094;28;20173;-72
2023/05/13 03:35:47;;;;;;;14.70;9.60;;;12.50;99.90;;;11.84;100.00;101680.50;4121194;28;20026;-72
2023/05/13 03:37:48;;;;;;;20.50;11.05;;;12.50;99.90;;;11.83;100.00;101677.03;4121395;28;20033;-72
2023/05/13 03:39:51;;;;;;;19.17;11.77;;;12.50;99.90;;;11.84;100.00;101689.28;4120110;28;20031;-73
2023/05/13 03:41:52;;;;;;;22.27;11.73;;;12.50;99.90;;;11.83;100.00;101698.19;4104101;28;20031;-72
2023/05/13 03:43:53;;;;;;;18.70;11.18;;;12.50;99.90;;;11.82;100.00;101693.91;4120038;28;20041;-73
2023/05/13 03:45:54;;;;;;;19.08;10.65;;;12.50;99.90;;;11.81;100.00;101684.28;4136248;28;20112;-72
2023/05/13 03:47:55;;;;;;;17.55;10.02;;;12.50;99.90;;;11.80;100.00;101679.16;4135798;28;20030;-72
2023/05/13 03:49:56;;;;;;;19.33;12.35;;;12.50;99.90;;;11.81;100.00;101688.72;4120093;28;20031;-72
2023/05/13 03:51:57;;;;;;;19.13;11.82;;;12.50;99.90;;;11.75;100.00;101684.84;4119546;28;20030;-72
2023/05/13 03:53:58;;;;;;;21.77;12.30;;;12.50;99.90;;;11.75;100.00;101681.38;4135857;28;20034;-72
2023/05/13 03:55:58;;;;;;;21.83;13.45;;;12.50;99.90;;;11.80;100.00;101692.38;4110632;28;20026;-72
2023/05/13 03:57:59;;;;;;;21.42;12.45;;;12.50;99.90;;;11.79;100.00;101696.81;4120984;28;20029;-72
2023/05/13 04:00:00;;;;;;;20.65;12.05;;;12.50;99.90;;;11.80;100.00;101702.94;4120877;28;20026;-72
2023/05/13 04:02:01;;;;;;;23.20;12.75;;;12.50;99.90;;;11.74;100.00;101688.44;4120698;28;20026;-72
2023/05/13 04:04:02;;;;;;;21.55;11.85;;;12.50;99.90;;;11.78;100.00;101699.59;4120870;28;20491;-72
2023/05/13 04:06:03;;;;;;;23.58;13.25;;;12.40;99.90;;;11.76;100.00;101690.97;4120714;28;20114;-73
2023/05/13 04:08:04;;;;;;;21.95;12.68;;;12.40;99.90;;;11.78;100.00;101692.50;4135480;28;20026;-72
2023/05/13 04:10:06;;;;;;;19.35;12.98;;;12.40;99.90;;;11.76;100.00;101694.44;4120735;28;20054;-72
2023/05/13 04:12:07;;;;;;;20.70;12.45;;;12.50;99.90;;;11.77;100.00;101688.16;4119547;28;20026;-73
2023/05/13 04:14:08;;;;;;;22.30;13.93;;;12.50;99.90;;;11.76;100.00;101685.69;4120618;28;20031;-73
2023/05/13 04:16:09;;;;;;;23.02;13.23;;;12.50;99.90;;;11.72;100.00;101695.69;4119692;28;20054;-73
2023/05/13 04:18:10;;;;;;;21.25;12.82;;;12.40;99.90;;;11.74;100.00;101701.66;4119461;28;20022;-72
2023/05/13 04:20:11;;;;;;;21.60;13.45;;;12.40;99.90;;;11.74;100.00;101691.09;4120739;28;20046;-72
2023/05/13 04:22:12;;;;;;;20.23;13.13;;;12.40;99.90;;;11.77;100.00;101695.28;4118985;28;20149;-73
2023/05/13 04:24:13;;;;;;;24.88;14.25;;;12.40;99.90;;;11.74;100.00;101687.66;4120582;28;20030;-73
2023/05/13 04:26:14;;;;;;;20.67;12.98;;;12.40;99.90;;;11.81;100.00;101694.03;4120489;28;20039;-72
2023/05/13 04:28:15;;;;;;;25.90;15.07;;;12.50;99.90;;;11.77;100.00;101704.03;4120747;28;20042;-73
2023/05/13 04:30:16;;;;;;;24.70;15.05;;;12.50;99.90;;;11.73;100.00;101697.38;4119382;28;20027;-73
2023/05/13 04:32:20;;;;;;;19.55;12.77;;;12.50;99.90;;;11.80;100.00;101705.59;4103031;29;20051;-72
2023/05/13 04:34:21;;;;;;;;;;;12.50;99.90;;;11.79;100.00;101707.38;4119383;28;20117;-73
2023/05/13 04:36:22;;;;;;;21.08;12.70;;;12.50;99.90;;;11.80;100.00;101709.03;4119082;28;19918;-73
2023/05/13 04:38:23;;;;;;;22.25;14.05;;;12.50;99.90;;;11.81;100.00;101705.44;4120411;28;20030;-72
2023/05/13 04:40:23;;;;;;;25.50;16.90;;;12.50;99.90;;;11.85;100.00;101709.47;4120342;28;20049;-73
2023/05/13 04:42:24;;;;;;;24.73;15.07;;;12.50;99.90;;;11.81;100.00;101713.38;4120082;28;20018;-73
2023/05/13 04:44:25;;;;;;;22.90;13.60;;;12.50;99.90;;;11.85;100.00;101708.63;4119085;28;20073;-72
2023/05/13 04:46:26;;;;;;;28.75;16.38;;;12.50;99.90;;;11.84;100.00;101699.88;4120238;28;20023;-72
2023/05/13 04:48:27;;;;;;;25.05;15.30;;;12.60;99.90;;;11.97;100.00;101721.56;4120306;28;20033;-73
2023/05/13 04:50:28;;;;;;;31.73;16.23;;;12.60;99.90;;;11.90;100.00;101720.44;4119102;28;20018;-72
2023/05/13 04:52:29;;;;;;;29.13;15.52;;;12.60;99.90;;;11.86;100.00;101719.06;4119283;28;20093;-73
2023/05/13 04:54:30;;;;;;;32.95;17.95;;;12.60;99.90;;;11.89;100.00;101715.28;4135246;28;20030;-72
2023/05/13 04:56:31;;;;;;;25.85;15.00;;;12.60;99.90;;;11.89;100.00;101718.78;4120384;28;20081;-73
2023/05/13 04:58:31;;;;;;;25.15;15.90;;;12.60;99.90;;;11.89;100.00;101713.47;4120039;28;20027;-72
2023/05/13 05:00:32;;;;;;;23.67;15.73;;;12.60;99.90;;;11.93;100.00;101717.53;4120206;28;20379;-72
2023/05/13 05:02:33;;;;;;;25.95;15.88;;;12.60;99.90;;;11.95;100.00;101717.38;4120001;28;20027;-72
2023/05/13 05:04:34;;;;;;;28.20;15.45;;;12.60;99.90;;;11.95;100.00;101723.50;4120015;28;20045;-73
2023/05/13 05:06:35;;;;;;;29.35;16.42;;;12.60;99.90;;;11.96;100.00;101732.28;4119056;28;20026;-72
2023/05/13 05:08:36;;;;;;;23.20;15.27;;;12.60;99.90;;;11.97;100.00;101723.38;4134966;28;20026;-72
2023/05/13 05:10:37;;;;;;;21.80;14.45;;;12.70;99.90;;;12.02;100.00;101732.53;4109239;28;20046;-72
2023/05/13 05:12:38;;;;;;;22.30;13.93;;;12.70;99.90;;;11.95;100.00;101723.50;4120029;28;20052;-72
2023/05/13 05:14:39;;;;;;;27.17;15.68;;;12.70;99.90;;;12.09;100.00;101735.47;4119863;28;20511;-72
2023/05/13 05:16:40;;;;;;;28.77;16.38;;;12.70;99.90;;;12.08;100.00;101739.91;4119807;28;20505;-72
2023/05/13 05:18:42;;;;;;;28.90;16.60;;;12.70;99.90;;;12.06;100.00;101747.16;4118789;28;20031;-72
2023/05/13 05:20:43;;;;;;;28.60;17.05;;;12.80;99.90;;;12.02;100.00;101735.19;4119918;28;20094;-72
2023/05/13 05:22:43;;;;;;;26.90;15.23;;;12.80;99.90;;;12.00;100.00;101725.75;4120093;28;20027;-72
2023/05/13 05:24:46;;;;;;;27.13;15.57;;;12.70;99.90;;;12.06;100.00;101728.66;4118835;28;20038;-72
2023/05/13 05:26:47;;;;;;;27.25;16.08;;;12.80;99.90;;;12.05;100.00;101728.78;4102904;28;20034;-73
2023/05/13 05:28:48;;;;;;;24.95;15.82;;;12.70;99.90;;;12.00;100.00;101726.56;4118779;28;20038;-72
2023/05/13 05:30:49;;;;;;;25.83;16.92;;;12.80;99.90;;;12.10;100.00;101735.31;4119837;28;20030;-72
2023/05/13 05:32:50;;;;;;;26.95;16.15;;;12.80;99.90;;;12.17;100.00;101739.06;4102303;29;20035;-72
2023/05/13 05:34:51;;;;;;;26.85;16.40;;;12.80;99.90;;;12.17;100.00;101744.34;4109233;28;20038;-72
2023/05/13 05:36:53;;;;;;;26.80;14.90;;;12.80;99.90;;;12.19;100.00;101750.34;4118699;28;20023;-72
2023/05/13 05:38:54;;;;;;;23.90;15.43;;;12.90;99.90;;;12.24;100.00;101755.22;4119876;28;20047;-72
2023/05/13 05:40:55;;;;;;;25.98;14.75;;;12.90;99.90;;;12.29;100.00;101747.69;4119817;28;20030;-72
2023/05/13 05:42:56;;;;;;;20.30;13.77;;;13.00;99.90;;;12.38;100.00;101756.56;4120901;28;20031;-72
2023/05/13 05:44:57;;;;;;;23.17;15.25;;;13.00;99.90;;;12.40;100.00;101751.97;4121723;28;20086;-72
2023/05/13 05:46:58;;;;;;;27.67;15.25;;;13.10;99.90;;;12.43;100.00;101751.66;4121511;28;20031;-72
2023/05/13 05:48:59;;;;;;;27.38;14.52;;;13.10;99.90;;;12.46;100.00;101760.16;4121395;28;20039;-72
2023/05/13 05:51:00;;;;;;;32.03;17.58;;;13.10;99.90;;;12.43;100.00;101760.44;4121271;28;20035;-72
2023/05/13 05:53:01;;;;;;;23.17;12.98;;;13.10;99.90;;;12.45;100.00;101765.63;4121579;28;20085;-72
2023/05/13 05:55:02;;;;;;;18.95;12.77;;;13.10;99.90;;;12.48;100.00;101767.97;4121475;28;20057;-72
2023/05/13 05:57:03;;;;;;;22.83;14.63;;;13.20;99.90;;;12.49;100.00;101769.63;4121367;28;20034;-72
2023/05/13 05:59:04;;;;;;;20.92;13.15;;;13.20;99.90;;;12.55;100.00;101777.81;4105529;29;20026;-72
2023/05/13 06:01:05;;;;;;;25.85;13.15;;;13.20;99.90;;;12.56;100.00;101768.09;4122761;28;20457;-72
2023/05/13 06:03:06;;;;;;;23.98;14.57;;;13.20;99.90;;;12.65;100.00;101780.44;4121191;28;20023;-72
2023/05/13 06:05:08;;;;;;;23.08;14.25;;;13.30;99.90;;;12.61;100.00;101781.72;4121359;28;20102;-72
2023/05/13 06:07:09;;;;;;;20.40;13.60;;;13.30;99.90;;;12.64;100.00;101787.56;4121692;28;20031;-72
2023/05/13 06:09:10;;;;;;;25.50;14.90;;;13.30;99.90;;;12.55;100.00;101782.28;4115259;28;20089;-72
2023/05/13 06:11:10;;;;;;;24.23;14.75;;;13.30;99.90;;;12.61;100.00;101795.78;4121398;28;20494;-72
2023/05/13 06:13:11;;;;;;;29.40;15.73;;;13.30;99.90;;;12.57;100.00;101796.22;4121336;28;20039;-72
2023/05/13 06:15:12;;;;;;;22.80;15.38;;;13.30;99.90;;;12.65;100.00;101793.69;4121469;28;20487;-72
2023/05/13 06:17:16;;;;;;;26.92;14.90;;;13.30;99.90;;;12.65;100.00;101789.22;4122265;28;20031;-72
2023/05/13 06:19:17;;;;;;;26.23;16.73;;;13.40;99.90;;;12.67;100.00;101797.84;4105572;28;20107;-72
2023/05/13 06:21:18;;;;;;;25.10;14.77;;;13.40;99.90;;;12.67;100.00;101792.56;4121275;28;20075;-72
2023/05/13 06:23:19;;;;;;;23.30;14.57;;;13.40;99.90;;;12.67;100.00;101808.44;4126263;28;20034;-72
2023/05/13 06:25:20;;;;;;;30.00;15.40;;;13.40;99.90;;;12.56;100.00;101807.78;4137427;28;20170;-72
2023/05/13 06:27:21;;;;;;;22.52;14.65;;;13.30;99.90;;;12.58;100.00;101811.09;4122366;28;20035;-72
2023/05/13 06:29:22;;;;;;;22.65;14.20;;;13.30;99.90;;;12.60;100.00;101806.53;4122222;28;20510;-72
2023/05/13 06:31:23;;;;;;;24.23;14.40;;;13.30;99.90;;;12.60;100.00;101809.97;4122095;28;20027;-72
2023/05/13 06:33:24;;;;;;;23.02;14.02;;;13.30;99.90;;;12.63;100.00;101812.34;4119097;28;20023;-72
2023/05/13 06:35:25;;;;;;;23.75;14.52;;;13.30;99.90;;;12.57;100.00;101804.97;4121929;28;20026;-71
2023/05/13 06:37:25;;;;;;;27.42;14.32;;;13.30;99.90;;;12.62;100.00;101805.41;4120965;28;20034;-72
2023/05/13 06:39:26;;;;;;;25.23;15.50;;;13.30;99.90;;;12.56;100.00;101791.91;4122227;28;20031;-72
2023/05/13 06:41:27;;;;;;;26.45;15.52;;;13.30;99.90;;;12.58;100.00;101805.81;4106021;28;20086;-72
2023/05/13 06:43:28;;;;;;;26.50;16.73;;;13.40;99.90;;;12.64;100.00;101814.03;4121375;28;20019;-72
2023/05/13 06:45:29;;;;;;;26.50;14.93;;;13.40;99.90;;;12.73;100.00;101813.16;4120940;28;20408;-72
2023/05/13 06:47:30;;;;;;;27.67;14.27;;;13.40;99.90;;;12.83;100.00;101809.66;4120688;28;20045;-72
2023/05/13 06:49:34;;;;;;;21.65;15.07;;;13.50;99.90;;;12.92;100.00;101814.94;4136862;28;20513;-73
2023/05/13 06:51:34;;;;;;;25.67;15.57;;;13.60;99.90;;;12.87;100.00;101811.88;4120673;28;20498;-72
2023/05/13 06:53:36;;;;;;;29.10;16.58;;;13.60;99.90;;;12.89;100.00;101819.66;4120343;28;20163;-72
2023/05/13 06:55:40;;;;;;;25.70;15.35;;;13.60;99.90;;;12.87;100.00;101821.63;4121186;28;20027;-72
2023/05/13 06:57:44;;;;;;;25.67;14.70;;;13.60;99.90;;;12.80;100.00;101815.25;4121936;28;20023;-72
2023/05/13 06:59:45;;;;;;;27.15;14.68;;;13.60;99.90;;;12.82;100.00;101824.69;4121840;28;20038;-72
2023/05/13 07:01:45;;;;;;;24.30;14.77;;;13.60;99.90;;;12.81;100.00;101816.91;4121427;28;20019;-72
2023/05/13 07:03:47;;;;;;;27.25;15.77;;;13.50;99.90;;;12.80;100.00;101823.19;4121853;28;20031;-73
2023/05/13 07:05:48;;;;;;;28.38;17.67;;;13.50;99.90;;;12.66;100.00;101814.72;4120574;28;20062;-72
2023/05/13 07:07:52;;;;;;;27.27;15.82;;;13.50;99.90;;;12.73;100.00;101831.69;4104309;29;20035;-71
2023/05/13 07:09:53;;;;;;;;;;;13.40;99.90;;;12.64;100.00;101821.97;4120086;28;20022;-73
2023/05/13 07:11:54;;;;;;;26.92;16.77;;;13.40;99.90;;;12.65;100.00;101826.28;4122083;28;19925;-72
2023/05/13 07:13:55;;;;;;;27.27;16.10;;;13.40;99.90;;;12.64;100.00;101819.31;4120559;28;20518;-72
2023/05/13 07:15:56;;;;;;;25.80;15.85;;;13.40;99.90;;;12.73;100.00;101828.22;4121675;28;20126;-72
2023/05/13 07:17:57;;;;;;;30.80;17.30;;;13.40;99.90;;;12.66;100.00;101832.44;4120093;28;20030;-72
2023/05/13 07:19:58;;;;;;;28.38;16.33;;;13.40;99.90;;;12.65;100.00;101833.41;4121818;28;20031;-73
2023/05/13 07:21:59;;;;;;;29.25;16.10;;;13.40;99.90;;;12.62;100.00;101834.53;4119895;28;20072;-72
2023/05/13 07:24:01;;;;;;;24.13;15.07;;;13.30;99.90;;;12.63;100.00;101824.78;4121450;28;20494;-73
2023/05/13 07:26:02;;;;;;;26.02;15.90;;;13.30;99.90;;;12.70;100.00;101837.28;4121455;28;20038;-72
2023/05/13 07:28:03;;;;;;;26.20;15.85;;;13.40;99.90;;;12.67;100.00;101831.44;4120368;28;20074;-72
2023/05/13 07:30:05;;;;;;;33.83;18.27;;;13.40;99.90;;;12.61;100.00;101832.00;4120376;28;20035;-72
2023/05/13 07:32:06;;;;;;;31.95;18.52;;;13.40;99.90;;;12.67;100.00;101821.69;4119987;28;20034;-72
2023/05/13 07:34:07;;;;;;;28.13;16.85;;;13.40;99.90;;;12.72;100.00;101823.91;4120014;28;20031;-73
2023/05/13 07:36:08;;;;;;;27.52;15.82;;;13.40;99.90;;;12.71;100.00;101820.44;4120582;28;20023;-73
2023/05/13 07:38:10;;;;;;;30.17;17.08;;;13.40;99.90;;;12.77;100.00;101826.97;4119756;28;20498;-73
2023/05/13 07:40:12;;;;;;;25.45;15.82;;;13.50;99.90;;;12.73;100.00;101823.75;4121446;28;20374;-73
2023/05/13 07:42:14;;;;;;;29.10;16.50;;;13.50;99.90;;;12.79;100.00;101830.28;4119819;28;20033;-73
2023/05/13 07:44:15;;;;;;;31.35;17.98;;;13.50;99.90;;;12.73;100.00;101837.00;4108093;28;20046;-73
2023/05/13 07:46:16;;;;;;;28.92;17.25;;;13.50;99.90;;;12.71;100.00;101835.47;4119809;28;20031;-73
2023/05/13 07:48:17;;;;;;;27.10;17.05;;;13.50;99.90;;;12.82;100.00;101845.88;4120148;28;20054;-73
2023/05/13 07:50:18;;;;;;;25.75;15.77;;;13.60;99.90;;;12.85;100.00;101850.91;4121063;28;20084;-72
2023/05/13 07:52:19;;;;;;;34.08;18.20;;;13.50;99.90;;;12.80;100.00;101847.84;4121120;28;20062;-73
2023/05/13 07:54:20;;;;;;;30.58;16.38;;;13.60;99.90;;;12.77;100.00;101853.44;4119737;28;20042;-73
2023/05/13 07:56:21;;;;;;;25.77;16.42;;;13.60;99.90;;;12.86;100.00;101851.75;4121044;28;20023;-73
2023/05/13 07:58:22;;;;;;;29.77;17.10;;;13.60;99.90;;;12.91;100.00;101842.38;4121022;28;20026;-73
2023/05/13 08:00:23;;;;;;;31.30;17.80;;;13.60;99.90;;;13.01;100.00;101845.00;4119652;28;20034;-72
2023/05/13 08:02:23;;;;;;;30.55;19.40;;;13.70;99.90;;;13.17;100.00;101851.38;4135546;28;20032;-73
2023/05/13 08:04:24;;;;;;;27.63;16.15;;;13.80;99.90;;;13.18;100.00;101847.75;4119623;28;20023;-73
2023/05/13 08:06:25;;;;;;;27.17;15.75;;;13.90;99.90;;;13.28;100.00;101851.22;4103375;28;20054;-72
2023/05/13 08:08:26;;;;;;;31.23;17.38;;;13.90;99.90;;;13.19;100.00;101848.59;4120377;28;20038;-73
2023/05/13 08:10:27;;;;;;;30.27;15.63;;;14.00;99.90;;;13.32;100.00;101855.22;4119733;28;20031;-73
2023/05/13 08:12:28;;;;;;;33.85;18.67;;;14.00;99.90;;;13.11;100.00;101857.25;4120767;28;20502;-73
2023/05/13 08:14:29;;;;;;;29.30;17.33;;;14.00;99.90;;;13.16;100.00;101855.03;4119509;28;20559;-73